Time;durP1;ratioP1;P1;durP2;ratioP2;P2;SDS_P1;SDS_P2;PMS_P1;PMS_P2;Temp;Humidity;BMP_temperature;BMP_pressure;BME280_temperature;BME280_humidity;BME280_pressure;Samples;Min_cycle;Max_cycle;Signal;HPM_P1;HPM_P2
2022/08/25 00:01:38;;;;;;;6.55;4.53;;;;;;;23.40;53.88;101507.09;10574787;28;20036;-73
2022/08/25 00:06:42;;;;;;;6.32;4.45;;;;;;;23.35;53.74;101499.75;10573131;28;20050;-72
2022/08/25 00:11:45;;;;;;;7.55;4.55;;;;;;;23.36;53.15;101506.16;10573728;28;20044;-72
2022/08/25 00:16:47;;;;;;;6.05;3.80;;;;;;;23.33;54.48;101527.28;10573537;28;20056;-72
2022/08/25 00:21:50;;;;;;;7.55;4.30;;;;;;;23.24;54.18;101517.31;10573369;28;20040;-72
2022/08/25 00:26:55;;;;;;;6.47;4.40;;;;;;;23.16;54.07;101503.09;10573307;28;20051;-72
2022/08/25 00:31:58;;;;;;;8.20;4.40;;;;;;;23.10;55.40;101493.28;10572001;28;20036;-73
2022/08/25 00:37:02;;;;;;;5.45;4.55;;;;;;;23.03;55.70;101515.41;10571550;28;20039;-72
2022/08/25 00:42:06;;;;;;;5.65;4.80;;;;;;;22.99;55.31;101522.84;10572534;28;20048;-72
2022/08/25 00:47:08;;;;;;;8.18;4.80;;;;;;;22.96;55.64;101525.53;10554061;28;20059;-72
2022/08/25 00:52:18;;;;;;;8.20;4.78;;;;;;;22.95;55.36;101516.31;10573048;28;20052;-72
2022/08/25 00:57:29;;;;;;;7.75;4.95;;;;;;;22.92;55.45;101507.81;10570655;28;20047;-72
2022/08/25 01:02:31;;;;;;;8.07;4.60;;;;;;;22.94;56.10;101516.66;10570654;28;20036;-72
2022/08/25 01:07:33;;;;;;;6.65;4.78;;;;;;;22.94;56.18;101525.06;10571957;28;20044;-72
2022/08/25 01:12:36;;;;;;;7.28;4.65;;;;;;;22.93;56.16;101510.25;10571452;28;20043;-72
2022/08/25 01:18:04;;;;;;;6.88;4.70;;;;;;;22.94;56.00;101527.88;10553634;28;20052;-72
2022/08/25 01:23:07;;;;;;;8.45;5.35;;;;;;;22.73;58.71;101517.44;10567266;28;20059;-72
2022/08/25 01:28:09;;;;;;;7.30;4.88;;;;;;;22.65;58.37;101509.97;10570288;28;20047;-72
2022/08/25 01:33:12;;;;;;;7.07;5.07;;;;;;;22.48;59.55;101510.91;10569775;28;20056;-72
2022/08/25 01:38:14;;;;;;;7.65;5.60;;;;;;;22.45;61.87;101508.81;10552593;28;20450;-72
2022/08/25 01:43:26;;;;;;;10.18;5.32;;;;;;;22.36;62.29;101512.81;10569912;28;20052;-72
2022/08/25 01:48:28;;;;;;;10.10;4.95;;;;;;;22.30;62.21;101514.19;10568985;28;20043;-72
2022/08/25 01:53:31;;;;;;;5.22;4.32;;;;;;;22.33;62.04;101503.13;10570271;28;20051;-72
2022/08/25 01:58:35;;;;;;;9.80;5.55;;;;;;;22.30;62.36;101503.00;10569355;28;20460;-72
2022/08/25 02:03:39;;;;;;;9.18;5.35;;;;;;;22.31;62.20;101507.44;10570613;28;20044;-72
2022/08/25 02:08:41;;;;;;;5.90;5.10;;;;;;;22.37;61.44;101525.63;10568447;28;20040;-72
2022/08/25 02:13:44;;;;;;;8.55;5.68;;;;;;;22.45;61.13;101528.38;10568402;28;20047;-72
2022/08/25 02:18:46;;;;;;;9.38;5.78;;;;;;;22.44;63.58;101542.72;10569438;28;20040;-72
2022/08/25 02:23:48;;;;;;;8.20;5.90;;;;;;;22.22;65.07;101549.44;10568860;28;20044;-72
2022/08/25 02:28:51;;;;;;;10.57;6.55;;;;;;;22.05;67.41;101546.75;10568147;28;20529;-72
2022/08/25 02:33:54;;;;;;;12.20;6.47;;;;;;;21.86;68.51;101539.53;10568622;28;20520;-72
2022/08/25 02:38:57;;;;;;;12.45;6.05;;;;;;;21.78;69.59;101537.63;10574195;28;20541;-72
2022/08/25 02:44:00;;;;;;;11.35;6.25;;;;;;;21.71;69.84;101537.31;10577950;28;20064;-72
2022/08/25 02:49:03;;;;;;;10.52;5.40;;;;;;;21.68;69.92;101516.44;10577150;28;20442;-72
2022/08/25 02:54:06;;;;;;;12.27;6.85;;;;;;;21.57;71.41;101508.78;10577014;28;20052;-72
2022/08/25 02:59:08;;;;;;;10.05;5.57;;;;;;;21.52;71.65;101500.56;10577065;28;20036;-72
2022/08/25 03:04:10;;;;;;;9.32;6.00;;;;;;;21.54;70.14;101478.75;10577352;28;20044;-72
2022/08/25 03:09:13;;;;;;;12.77;6.45;;;;;;;21.34;71.89;101472.72;10577227;28;20044;-72
2022/08/25 03:14:15;;;;;;;6.75;4.45;;;;;;;21.06;73.32;101507.75;10576157;28;20052;-72
2022/08/25 03:19:17;;;;;;;9.93;5.28;;;;;;;20.86;74.22;101512.03;10576552;28;20052;-72
2022/08/25 03:24:19;;;;;;;10.82;6.30;;;;;;;20.76;76.16;101485.28;10576761;28;20059;-72
2022/08/25 03:29:26;;;;;;;12.57;6.70;;;;;;;20.60;78.52;101474.97;10574565;28;20047;-72
2022/08/25 03:34:29;;;;;;;10.73;6.45;;;;;;;20.38;77.73;101487.88;10576070;28;20063;-72
2022/08/25 03:39:31;;;;;;;17.15;6.25;;;;;;;20.34;78.97;101500.03;10574805;28;20055;-72
2022/08/25 03:44:33;;;;;;;10.15;6.05;;;;;;;20.28;79.64;101515.25;10575015;28;20040;-72
2022/08/25 03:49:36;;;;;;;10.82;6.72;;;;;;;20.21;80.67;101512.13;10574107;28;20047;-72
2022/08/25 03:54:38;;;;;;;10.40;6.28;;;;;;;20.21;82.64;101529.66;10574009;28;20044;-72
2022/08/25 03:59:40;;;;;;;10.98;6.25;;;;;;;20.19;82.35;101515.25;10575052;28;20059;-72
2022/08/25 04:04:43;;;;;;;11.93;5.82;;;;;;;20.26;82.94;101528.69;10573439;28;20051;-72
2022/08/25 04:09:45;;;;;;;13.20;6.32;;;;;;;20.24;83.29;101553.28;10574883;28;20501;-72
2022/08/25 04:14:47;;;;;;;11.90;6.35;;;;;;;20.24;83.96;101556.88;10573861;28;20055;-73
2022/08/25 04:19:50;;;;;;;12.82;6.43;;;;;;;20.25;84.61;101563.28;10574327;28;20497;-71
2022/08/25 04:24:52;;;;;;;13.60;6.20;;;;;;;20.24;85.61;101558.84;10573236;28;20043;-72
2022/08/25 04:29:54;;;;;;;11.32;6.88;;;;;;;20.17;86.74;101551.81;10573275;28;20036;-72
2022/08/25 04:34:57;;;;;;;10.63;7.03;;;;;;;19.98;86.65;101539.28;10573907;28;20048;-72
2022/08/25 04:39:59;;;;;;;11.88;6.28;;;;;;;19.80;86.45;101541.19;10573049;28;20044;-72
2022/08/25 04:45:02;;;;;;;13.60;7.70;;;;;;;19.69;86.63;101521.16;10571837;28;20414;-73
2022/08/25 04:50:06;;;;;;;12.30;6.80;;;;;;;19.56;86.85;101522.06;10572380;28;20424;-72
2022/08/25 04:55:09;;;;;;;11.27;6.20;;;;;;;19.51;86.67;101516.59;10554156;28;20044;-72
2022/08/25 05:00:11;;;;;;;12.70;6.68;;;;;;;19.52;86.81;101513.50;10572607;28;20039;-72
2022/08/25 05:05:15;;;;;;;10.52;6.60;;;;;;;19.50;87.63;101510.22;10571400;28;20044;-72
2022/08/25 05:10:17;;;;;;;11.18;7.00;;;;;;;19.55;87.66;101510.09;10571561;28;20036;-73
2022/08/25 05:20:40;;;;;;;13.88;7.75;;;;;;;19.79;88.18;101531.19;10571858;28;20491;-72
2022/08/25 05:25:43;;;;;;;15.10;6.70;;;;;;;20.34;87.85;101536.25;10571094;28;20055;-73
2022/08/25 05:30:48;;;;;;;12.40;6.82;;;;;;;20.68;85.47;101533.53;10571461;28;20084;-72
2022/08/25 05:35:50;;;;;;;14.13;6.22;;;;;;;20.71;83.94;101541.25;10569356;28;20047;-72
2022/08/25 05:40:56;;;;;;;12.93;6.22;;;;;;;20.68;83.32;101546.66;10570568;28;20035;-72
2022/08/25 05:45:59;;;;;;;8.60;5.50;;;;;;;20.73;83.05;101538.94;10569053;28;20048;-72
2022/08/25 05:51:04;;;;;;;12.20;5.28;;;;;;;20.86;82.79;101551.09;10570202;28;20047;-72
2022/08/25 05:56:07;;;;;;;8.25;5.00;;;;;;;20.92;81.76;101546.16;10570683;28;20410;-72
2022/08/25 06:06:39;;;;;;;10.18;5.20;;;;;;;21.06;80.54;101544.84;10569965;28;20047;-73
2022/08/25 06:11:41;;;;;;;11.20;5.20;;;;;;;21.51;80.55;101549.19;10569701;28;20044;-74
2022/08/25 06:16:44;;;;;;;9.60;5.00;;;;;;;22.26;79.35;101550.41;10568987;28;20048;-73
2022/08/25 06:21:46;;;;;;;11.32;5.53;;;;;;;22.59;75.98;101541.28;10569504;28;20044;-73
2022/08/25 06:26:48;;;;;;;9.52;4.60;;;;;;;22.65;74.86;101559.50;10569885;28;20059;-73
2022/08/25 06:31:50;;;;;;;9.32;4.65;;;;;;;22.65;74.26;101565.91;10569213;28;20410;-73
2022/08/25 06:36:53;;;;;;;11.95;4.07;;;;;;;22.71;74.48;101563.72;10551119;28;20048;-73
2022/08/25 06:41:55;;;;;;;12.00;4.35;;;;;;;22.94;73.58;101570.66;10568842;28;20093;-73
2022/08/25 06:47:01;;;;;;;7.30;3.97;;;;;;;23.26;72.73;101571.03;10569120;28;20087;-73
2022/08/25 06:52:03;;;;;;;14.25;5.32;;;;;;;23.31;73.08;101554.00;10569700;28;20098;-73
2022/08/25 06:57:06;;;;;;;11.88;4.88;;;;;;;23.23;72.71;101546.50;10568215;28;20040;-73
2022/08/25 07:02:09;;;;;;;8.88;4.25;;;;;;;23.12;73.74;101540.53;10569379;28;20047;-73
2022/08/25 07:07:11;;;;;;;9.35;5.05;;;;;;;23.05;74.09;101557.88;10568415;28;20406;-72
2022/08/25 07:12:13;;;;;;;8.63;4.13;;;;;;;22.87;73.97;101561.97;10569983;28;20055;-72
2022/08/25 07:17:16;;;;;;;6.15;3.80;;;;;;;23.02;74.14;101569.75;10569108;28;20094;-72
2022/08/25 07:22:18;;;;;;;8.50;4.40;;;;;;;23.00;73.85;101560.88;10569137;28;20059;-72
2022/08/25 07:27:21;;;;;;;11.05;4.40;;;;;;;23.14;74.43;101564.22;10574646;28;20054;-72
2022/08/25 07:32:23;;;;;;;8.93;3.55;;;;;;;23.25;73.78;101558.16;10575324;28;20043;-74
2022/08/25 07:37:25;;;;;;;11.35;4.80;;;;;;;23.37;73.61;101573.03;10576073;28;20056;-73
2022/08/25 07:42:28;;;;;;;8.55;4.07;;;;;;;23.38;73.08;101583.06;10575224;28;20044;-73
2022/08/25 07:47:30;;;;;;;6.25;3.95;;;;;;;23.44;72.44;101575.31;10573725;28;20052;-73
2022/08/25 07:52:32;;;;;;;11.70;4.28;;;;;;;23.48;72.44;101573.44;10574774;28;20047;-73
2022/08/25 07:57:35;;;;;;;8.82;4.47;;;;;;;23.45;71.78;101574.13;10573390;28;20294;-72
2022/08/25 08:02:38;;;;;;;9.80;3.92;;;;;;;23.55;71.47;101568.06;10573638;28;20044;-73
2022/08/25 08:07:40;;;;;;;9.73;4.55;;;;;;;23.62;70.87;101565.56;10574381;28;20059;-73
2022/08/25 08:12:43;;;;;;;11.38;4.38;;;;;;;23.63;71.19;101556.00;10573982;28;20051;-73
2022/08/25 08:17:45;;;;;;;10.20;5.15;;;;;;;23.61;70.88;101555.53;10572350;28;20052;-73
2022/08/25 08:22:47;;;;;;;9.40;4.47;;;;;;;23.56;70.93;101564.09;10572281;28;20036;-72
2022/08/25 08:27:50;;;;;;;9.27;4.10;;;;;;;23.43;71.01;101565.25;10573168;28;20044;-72
2022/08/25 08:32:53;;;;;;;7.90;4.03;;;;;;;23.23;72.48;101577.31;10573772;28;20040;-72
2022/08/25 08:37:55;;;;;;;9.27;4.30;;;;;;;23.14;72.55;101566.19;10572964;28;20548;-72
2022/08/25 08:43:05;;;;;;;7.28;4.35;;;;;;;23.10;73.60;101577.28;10554713;28;20036;-71
2022/08/25 08:48:32;;;;;;;9.88;3.90;;;;;;;23.10;73.52;101579.25;10571107;28;20056;-72
2022/08/25 08:53:55;;;;;;;6.60;3.97;;;;;;;23.14;73.60;101588.59;10572911;28;20044;-73
2022/08/25 08:59:04;;;;;;;10.80;4.43;;;;;;;23.12;73.70;101577.75;10572633;28;20048;-73
2022/08/25 09:04:15;;;;;;;10.38;4.78;;;;;;;23.13;73.45;101582.19;10554351;28;20161;-73
2022/08/25 09:09:27;;;;;;;6.85;4.30;;;;;;;23.14;73.56;101588.59;10570246;28;20044;-73
2022/08/25 09:15:05;;;;;;;10.88;4.60;;;;;;;23.19;74.33;101596.78;10570020;28;20051;-73
2022/08/25 09:20:22;;;;;;;7.63;3.95;;;;;;;23.20;73.39;101594.81;10568094;28;20052;-73
2022/08/25 09:25:58;;;;;;;8.45;4.88;;;;;;;23.19;73.85;101595.97;10569782;28;20532;-73
2022/08/25 09:31:03;;;;;;;12.38;4.97;;;;;;;22.98;73.36;101602.41;10566544;28;20079;-73
2022/08/25 09:36:05;;;;;;;9.82;4.95;;;;;;;22.82;72.93;101595.78;10571108;28;20047;-73
2022/08/25 09:41:10;;;;;;;16.38;5.80;;;;;;;22.70;73.39;101584.47;10571254;28;20058;-73
2022/08/25 09:46:22;;;;;;;18.13;6.80;;;;;;;22.64;73.23;101594.25;10569414;28;20044;-73
2022/08/25 09:51:28;;;;;;;14.90;5.88;;;;;;;22.67;73.27;101585.16;10569629;28;20044;-73
2022/08/25 09:56:33;;;;;;;9.40;5.50;;;;;;;22.78;72.85;101606.00;10569413;28;20051;-73
2022/08/25 10:01:47;;;;;;;15.15;6.15;;;;;;;22.75;71.86;101601.09;10570776;28;20510;-72
2022/08/25 10:06:50;;;;;;;9.45;4.70;;;;;;;22.62;70.62;101607.75;10568642;28;20032;-72
2022/08/25 10:11:53;;;;;;;11.93;4.28;;;;;;;22.42;70.17;101612.16;10569720;28;20043;-73
2022/08/25 10:17:23;;;;;;;9.88;3.97;;;;;;;22.30;69.45;101607.28;10568914;28;20533;-72
2022/08/25 10:22:33;;;;;;;10.65;4.43;;;;;;;22.33;70.09;101608.56;10569540;28;20032;-72
2022/08/25 10:27:53;;;;;;;7.03;5.03;;;;;;;22.34;69.28;101613.00;10569934;28;20561;-73
2022/08/25 10:33:04;;;;;;;9.35;4.05;;;;;;;22.24;69.79;101606.66;10569236;28;20430;-72
2022/08/25 10:38:24;;;;;;;8.55;4.20;;;;;;;22.15;70.51;101607.84;10568989;28;20533;-73
2022/08/25 10:43:34;;;;;;;8.93;3.72;;;;;;;22.23;70.74;101615.38;10569206;28;20048;-73
2022/08/25 10:48:46;;;;;;;11.32;4.95;;;;;;;22.29;70.36;101602.84;10567926;28;20052;-72
2022/08/25 10:53:56;;;;;;;8.48;3.85;;;;;;;22.34;71.50;101613.81;10567688;28;20044;-72
2022/08/25 10:59:10;;;;;;;8.20;4.57;;;;;;;22.35;71.10;101621.06;10571884;28;20047;-73
2022/08/25 11:04:17;;;;;;;9.45;4.85;;;;;;;22.23;71.68;101610.59;10576629;28;20414;-73
2022/08/25 11:09:28;;;;;;;7.32;4.20;;;;;;;22.12;72.62;101616.91;10575331;28;20036;-72
2022/08/25 11:14:35;;;;;;;10.80;4.75;;;;;;;21.96;72.13;101623.00;10575637;28;20071;-73
2022/08/25 11:19:41;;;;;;;7.15;4.43;;;;;;;21.88;71.83;101623.88;10575074;28;20071;-73
2022/08/25 11:24:52;;;;;;;9.43;3.93;;;;;;;21.85;72.49;101626.50;10574768;28;20044;-72
2022/08/25 11:30:11;;;;;;;7.95;3.10;;;;;;;21.89;71.67;101630.28;10574645;28;20044;-73
2022/08/25 11:35:16;;;;;;;7.85;3.63;;;;;;;21.83;71.48;101629.63;10575736;28;20047;-72
2022/08/25 11:40:20;;;;;;;8.00;3.22;;;;;;;21.79;70.83;101627.84;10574879;28;20512;-72
2022/08/25 11:45:35;;;;;;;7.97;3.15;;;;;;;21.77;70.03;101628.19;10574238;28;20048;-72
2022/08/25 11:50:58;;;;;;;10.23;3.38;;;;;;;21.68;69.64;101625.38;10574934;28;20040;-72
2022/08/25 11:56:30;;;;;;;4.43;2.78;;;;;;;21.68;69.67;101627.38;10575389;28;20055;-72
2022/08/25 12:01:38;;;;;;;4.20;2.60;;;;;;;21.68;69.70;101628.19;10568682;28;20048;-72
2022/08/25 12:07:03;;;;;;;4.90;2.08;;;;;;;21.69;69.48;101631.78;10574164;28;20035;-72
2022/08/25 12:12:27;;;;;;;5.43;2.53;;;;;;;21.71;68.93;101631.50;10573291;28;20047;-72
2022/08/25 12:17:37;;;;;;;4.82;2.40;;;;;;;21.62;68.95;101625.91;10573998;28;20044;-72
2022/08/25 12:22:50;;;;;;;5.35;2.75;;;;;;;21.67;68.96;101625.72;10572255;28;20071;-73
2022/08/25 12:28:13;;;;;;;5.97;2.40;;;;;;;21.78;68.93;101634.59;10572854;28;20498;-72
2022/08/25 12:33:24;;;;;;;7.97;2.63;;;;;;;21.85;68.42;101638.50;10573348;28;20043;-73
2022/08/25 12:38:37;;;;;;;9.32;2.80;;;;;;;21.92;68.03;101644.41;10573072;28;20046;-72
2022/08/25 12:43:41;;;;;;;4.38;1.95;;;;;;;22.04;67.05;101635.34;10573514;28;20048;-73
2022/08/25 12:48:56;;;;;;;3.08;1.67;;;;;;;22.15;65.94;101641.38;10571474;28;20545;-73
2022/08/25 12:54:14;;;;;;;3.28;1.80;;;;;;;22.16;65.38;101643.03;10571573;28;20040;-73
2022/08/25 12:59:20;;;;;;;2.58;1.77;;;;;;;22.14;64.44;101646.16;10568603;28;20051;-73
2022/08/25 13:04:22;;;;;;;2.17;1.83;;;;;;;22.24;64.31;101636.59;10569018;28;20050;-73
2022/08/25 13:09:36;;;;;;;5.28;1.63;;;;;;;22.33;62.66;101642.94;10572536;28;20055;-73
2022/08/25 13:14:43;;;;;;;2.15;1.65;;;;;;;22.38;62.37;101636.34;10572128;28;20070;-73
2022/08/25 13:19:45;;;;;;;3.92;1.80;;;;;;;22.40;61.49;101642.44;10571168;28;20047;-73
2022/08/25 13:24:49;;;;;;;2.67;1.30;;;;;;;22.23;60.75;101643.34;10571828;28;20040;-73
2022/08/25 13:29:57;;;;;;;2.40;1.63;;;;;;;22.17;60.76;101651.06;10571023;28;20046;-73
2022/08/25 13:35:22;;;;;;;4.32;1.55;;;;;;;22.24;60.38;101644.97;10552726;28;20047;-73
2022/08/25 13:40:27;;;;;;;2.22;1.30;;;;;;;22.25;59.94;101638.22;10571089;28;20047;-73
2022/08/25 13:45:35;;;;;;;2.85;1.40;;;;;;;22.16;59.49;101638.25;10570200;28;20044;-73
2022/08/25 13:50:40;;;;;;;2.17;1.10;;;;;;;22.05;60.07;101641.78;10569350;28;20052;-73
2022/08/25 13:55:52;;;;;;;2.83;1.30;;;;;;;22.03;61.03;101644.03;10568559;28;20502;-73
2022/08/25 14:01:13;;;;;;;2.03;1.38;;;;;;;21.99;61.88;101641.09;10569333;28;20413;-73
2022/08/25 14:06:15;;;;;;;1.88;1.25;;;;;;;21.93;62.43;101634.88;10569048;28;20044;-73
2022/08/25 14:11:29;;;;;;;1.83;1.20;;;;;;;21.98;62.87;101643.06;10568549;28;20040;-73
2022/08/25 14:16:44;;;;;;;1.80;1.10;;;;;;;21.94;62.69;101639.31;10570109;28;20418;-73
2022/08/25 14:21:46;;;;;;;1.60;1.40;;;;;;;21.85;62.89;101644.09;10551424;28;20036;-72
2022/08/25 14:26:49;;;;;;;0.80;0.80;;;;;;;21.67;62.54;101646.09;10569416;28;20059;-71
2022/08/25 14:31:51;;;;;;;1.20;1.10;;;;;;;21.57;62.87;101649.25;10569396;28;20039;-72
2022/08/25 14:36:53;;;;;;;1.45;1.00;;;;;;;21.58;62.25;101641.69;10577738;28;20418;-73
2022/08/25 14:41:56;;;;;;;1.20;1.10;;;;;;;21.59;62.70;101646.13;10577632;28;20494;-73
2022/08/25 14:47:00;;;;;;;1.30;1.20;;;;;;;21.65;62.52;101644.78;10576999;28;20051;-73
2022/08/25 14:52:10;;;;;;;2.45;1.05;;;;;;;21.67;63.08;101648.88;10577432;28;20047;-73
2022/08/25 14:57:12;;;;;;;1.48;1.33;;;;;;;21.56;63.83;101646.78;10542255;28;20048;-72
2022/08/25 15:02:18;;;;;;;2.63;1.52;;;;;;;21.49;64.85;101643.66;10577204;28;20062;-72
2022/08/25 15:12:41;;;;;;;1.88;1.38;;;;;;;21.47;64.89;101634.81;10577272;28;20055;-72
2022/08/25 15:17:45;;;;;;;2.08;1.40;;;;;;;21.49;65.21;101632.50;10574747;28;20043;-72
2022/08/25 15:22:48;;;;;;;2.47;1.00;;;;;;;21.45;64.79;101637.94;10574887;28;20036;-73
2022/08/25 15:27:50;;;;;;;1.05;0.90;;;;;;;21.40;65.17;101640.09;10576340;28;20039;-72
2022/08/25 15:32:52;;;;;;;2.72;0.95;;;;;;;21.45;65.29;101640.72;10576360;28;20047;-72
2022/08/25 15:37:55;;;;;;;1.02;0.93;;;;;;;21.44;65.22;101646.63;10575816;28;20051;-72
2022/08/25 15:42:57;;;;;;;1.35;1.23;;;;;;;21.42;65.36;101641.38;10575199;28;20309;-72
2022/08/25 15:47:59;;;;;;;1.23;1.10;;;;;;;21.37;65.42;101638.78;10573767;28;20056;-72
2022/08/25 15:53:01;;;;;;;3.53;1.10;;;;;;;21.32;65.69;101636.13;10574738;28;20090;-73
2022/08/25 15:58:03;;;;;;;2.35;1.27;;;;;;;21.27;66.59;101628.75;10575019;28;20048;-72
2022/08/25 16:03:05;;;;;;;2.47;1.90;;;;;;;21.23;65.90;101633.31;10573586;28;20075;-73
2022/08/25 16:08:08;;;;;;;2.72;1.40;;;;;;;21.14;66.06;101635.28;10574180;28;20441;-73
2022/08/25 16:13:11;;;;;;;0.95;0.95;;;;;;;21.19;65.63;101634.31;10574726;28;20047;-73
2022/08/25 16:18:13;;;;;;;1.60;1.50;;;;;;;21.25;66.29;101628.25;10574391;28;20051;-74
2022/08/25 16:23:17;;;;;;;2.83;1.50;;;;;;;21.18;67.15;101636.28;10572320;28;20040;-73
2022/08/25 16:28:19;;;;;;;5.15;2.20;;;;;;;21.20;67.08;101628.41;10573158;28;20044;-73
2022/08/25 16:33:21;;;;;;;5.57;2.33;;;;;;;21.20;67.03;101634.00;10573929;28;20056;-73
2022/08/25 16:38:24;;;;;;;2.70;1.88;;;;;;;21.16;68.87;101637.75;10572958;28;20036;-73
2022/08/25 16:43:26;;;;;;;3.72;2.00;;;;;;;21.05;68.57;101626.09;10572845;28;20525;-73
2022/08/25 16:48:29;;;;;;;1.90;1.73;;;;;;;20.92;69.59;101635.44;10571253;28;20506;-73
2022/08/25 16:58:58;;;;;;;4.25;2.22;;;;;;;20.63;72.14;101642.44;10572113;28;20398;-73
2022/08/25 17:04:00;;;;;;;1.95;1.48;;;;;;;20.22;71.21;101655.91;10572757;28;20048;-73
2022/08/25 17:09:04;;;;;;;3.08;1.67;;;;;;;19.90;70.59;101646.75;10571662;28;20036;-73
2022/08/25 17:14:06;;;;;;;1.08;0.98;;;;;;;19.66;71.26;101658.25;10571691;28;20040;-73
2022/08/25 17:19:11;;;;;;;1.40;1.30;;;;;;;19.44;72.31;101664.63;10572026;28;20056;-72
2022/08/25 17:24:15;;;;;;;1.95;1.40;;;;;;;19.19;72.87;101659.66;10571481;28;20383;-73
2022/08/25 17:29:20;;;;;;;1.23;1.10;;;;;;;19.08;73.05;101672.97;10570902;28;20036;-72
2022/08/25 17:34:23;;;;;;;0.80;0.80;;;;;;;18.90;73.93;101671.16;10570868;28;20044;-73
2022/08/25 17:39:25;;;;;;;1.02;1.02;;;;;;;18.68;73.96;101683.03;10569412;28;20449;-72
2022/08/25 17:44:27;;;;;;;1.23;1.13;;;;;;;18.58;73.50;101674.91;10570644;28;20062;-72
2022/08/25 17:49:30;;;;;;;1.45;1.17;;;;;;;18.32;73.95;101675.41;10570290;28;20063;-72
2022/08/25 17:54:32;;;;;;;1.73;1.40;;;;;;;18.20;74.37;101671.47;10569260;28;20059;-72
2022/08/25 17:59:36;;;;;;;1.23;1.08;;;;;;;18.24;74.73;101673.34;10569960;28;20055;-73
2022/08/25 18:04:38;;;;;;;3.97;1.13;;;;;;;18.26;75.56;101684.97;10569924;28;20036;-73
2022/08/25 18:09:40;;;;;;;1.40;1.30;;;;;;;18.16;76.36;101692.66;10569496;28;20048;-73
2022/08/25 18:14:42;;;;;;;1.58;1.30;;;;;;;18.10;76.23;101689.16;10570427;28;20521;-73
2022/08/25 18:19:45;;;;;;;1.20;1.10;;;;;;;17.99;76.43;101688.53;10568180;28;20066;-73
2022/08/25 18:24:48;;;;;;;1.00;0.85;;;;;;;18.02;76.54;101692.63;10570079;28;20052;-73
2022/08/25 18:29:50;;;;;;;1.50;1.30;;;;;;;18.10;76.93;101705.00;10568108;28;20056;-73
2022/08/25 18:34:53;;;;;;;1.80;1.38;;;;;;;18.03;76.91;101702.63;10569892;28;20044;-73
2022/08/25 18:45:17;;;;;;;1.10;0.95;;;;;;;17.87;77.56;101701.25;10569045;28;20043;-74
2022/08/25 18:50:19;;;;;;;2.25;1.65;;;;;;;17.94;77.53;101713.63;10568671;28;20050;-73
2022/08/25 18:55:22;;;;;;;1.83;1.40;;;;;;;17.70;78.80;101710.97;10568712;28;20036;-73
2022/08/25 19:00:27;;;;;;;1.60;1.40;;;;;;;17.73;79.03;101707.59;10569731;28;20056;-74
2022/08/25 19:05:32;;;;;;;1.10;1.05;;;;;;;17.86;79.04;101719.03;10569025;28;20051;-73
2022/08/25 19:10:36;;;;;;;2.10;1.20;;;;;;;17.81;79.42;101714.41;10569513;28;20509;-72
2022/08/25 19:15:40;;;;;;;1.20;1.10;;;;;;;17.85;79.58;101712.66;10567943;28;20493;-73
2022/08/25 19:20:42;;;;;;;1.92;1.60;;;;;;;17.78;79.45;101723.34;10573497;28;20055;-73
2022/08/25 19:25:44;;;;;;;2.78;2.13;;;;;;;17.60;80.22;101713.88;10575705;28;20040;-73
2022/08/25 19:30:46;;;;;;;3.78;2.17;;;;;;;17.41;81.02;101718.63;10576707;28;20044;-73
2022/08/25 19:35:50;;;;;;;2.78;1.88;;;;;;;17.35;81.12;101720.63;10576382;28;20040;-73
2022/08/25 19:40:52;;;;;;;2.55;1.80;;;;;;;17.32;80.82;101712.09;10575258;28;20510;-73
2022/08/25 19:45:54;;;;;;;2.20;2.00;;;;;;;17.44;81.98;101721.63;10557700;28;20048;-73
2022/08/25 19:50:57;;;;;;;3.03;2.33;;;;;;;17.36;82.34;101719.53;10576067;28;20050;-73
2022/08/25 19:56:00;;;;;;;3.33;2.28;;;;;;;17.40;82.39;101715.03;10575506;28;20043;-73
2022/08/25 20:01:03;;;;;;;4.15;2.00;;;;;;;17.29;82.59;101718.25;10573517;28;20050;-73
2022/08/25 20:06:05;;;;;;;2.50;1.33;;;;;;;17.29;82.09;101712.69;10572949;28;20506;-73
2022/08/25 20:11:07;;;;;;;2.20;1.88;;;;;;;17.29;82.08;101715.47;10574169;28;20036;-73
2022/08/25 20:16:13;;;;;;;1.90;1.52;;;;;;;17.28;81.70;101716.59;10575114;28;20126;-73
2022/08/25 20:21:17;;;;;;;3.00;1.98;;;;;;;17.23;81.73;101713.91;10556821;28;20051;-73
2022/08/25 20:26:20;;;;;;;1.42;1.23;;;;;;;17.28;81.28;101720.19;10574326;28;20079;-73
2022/08/25 20:31:22;;;;;;;3.10;1.77;;;;;;;17.35;80.84;101717.03;10572716;28;20066;-73
2022/08/25 20:36:24;;;;;;;1.77;1.00;;;;;;;17.43;79.93;101719.97;10572951;28;20078;-73
2022/08/25 20:41:27;;;;;;;1.42;1.20;;;;;;;17.48;79.08;101719.88;10573049;28;20047;-72
2022/08/25 20:46:34;;;;;;;1.15;1.05;;;;;;;17.53;78.70;101727.34;10571487;28;20429;-72
2022/08/25 20:51:36;;;;;;;1.00;0.95;;;;;;;17.55;78.25;101733.41;10572517;28;20123;-73
2022/08/25 20:56:38;;;;;;;0.80;0.80;;;;;;;17.46;78.24;101737.97;10573285;28;20421;-74
2022/08/25 21:01:41;;;;;;;1.05;0.80;;;;;;;17.43;78.13;101735.81;10572203;28;20410;-73
2022/08/25 21:06:44;;;;;;;2.08;0.88;;;;;;;17.38;78.64;101736.72;10571897;28;20051;-73
2022/08/25 21:11:47;;;;;;;1.35;0.90;;;;;;;17.36;78.91;101735.38;10571908;28;20488;-73
2022/08/25 21:16:50;;;;;;;0.95;0.90;;;;;;;17.36;78.94;101738.97;10571739;28;20040;-73
2022/08/25 21:21:53;;;;;;;1.77;0.80;;;;;;;17.37;78.77;101748.94;10571695;28;20052;-73
2022/08/25 21:26:58;;;;;;;0.98;0.80;;;;;;;17.36;78.83;101741.72;10571110;28;20054;-73
2022/08/25 21:32:01;;;;;;;0.80;0.65;;;;;;;17.34;78.65;101757.00;10571981;28;20052;-73
2022/08/25 21:37:03;;;;;;;0.70;0.70;;;;;;;17.23;78.53;101747.19;10569845;28;20409;-73
2022/08/25 21:42:06;;;;;;;2.75;1.10;;;;;;;17.22;78.60;101753.88;10569763;28;20059;-73
2022/08/25 21:47:08;;;;;;;2.85;0.80;;;;;;;17.13;78.74;101756.47;10571166;28;20425;-73
2022/08/25 21:52:10;;;;;;;1.65;0.95;;;;;;;17.16;78.35;101755.88;10569481;28;20052;-73
2022/08/25 21:57:12;;;;;;;1.17;0.98;;;;;;;17.25;78.17;101761.59;10570091;28;20502;-73
2022/08/25 22:02:14;;;;;;;1.02;0.93;;;;;;;17.20;77.98;101768.03;10569033;28;20058;-73
2022/08/25 22:07:17;;;;;;;3.78;0.80;;;;;;;17.14;78.10;101761.72;10569804;28;20059;-72
2022/08/25 22:12:20;;;;;;;0.93;0.90;;;;;;;17.12;78.51;101758.41;10570434;28;20048;-73
2022/08/25 22:17:22;;;;;;;1.70;0.88;;;;;;;17.07;78.66;101764.03;10570354;28;20521;-73
2022/08/25 22:22:24;;;;;;;1.33;0.82;;;;;;;17.05;78.89;101763.53;10570225;28;20044;-73
2022/08/25 22:27:27;;;;;;;1.05;0.95;;;;;;;17.02;79.25;101763.28;10570121;28;20048;-73
2022/08/25 22:32:29;;;;;;;2.17;0.68;;;;;;;16.99;79.21;101763.88;10569696;28;20039;-73
2022/08/25 22:37:31;;;;;;;2.80;1.00;;;;;;;16.96;78.94;101764.47;10569933;28;20040;-73
2022/08/25 22:42:33;;;;;;;1.30;1.10;;;;;;;16.89;79.05;101759.28;10569349;28;20051;-73
2022/08/25 22:47:36;;;;;;;1.15;0.85;;;;;;;16.90;79.05;101760.94;10569058;28;20052;-73
2022/08/25 22:52:38;;;;;;;0.70;0.70;;;;;;;16.97;78.83;101755.03;10569678;28;20043;-73
2022/08/25 22:57:41;;;;;;;1.58;1.00;;;;;;;16.95;79.66;101758.09;10577842;28;20533;-73
2022/08/25 23:02:43;;;;;;;2.03;1.20;;;;;;;17.05;79.28;101751.59;10577976;28;20044;-73
2022/08/25 23:07:45;;;;;;;1.08;1.00;;;;;;;17.09;79.21;101749.88;10577304;28;20048;-73
2022/08/25 23:12:48;;;;;;;2.78;0.90;;;;;;;17.10;78.46;101745.97;10577195;28;20047;-73
2022/08/25 23:17:50;;;;;;;2.25;1.10;;;;;;;17.12;78.11;101738.19;10577292;28;20418;-73
2022/08/25 23:22:53;;;;;;;1.63;1.17;;;;;;;17.09;78.03;101747.09;10575031;28;20040;-73
2022/08/25 23:27:55;;;;;;;0.90;0.90;;;;;;;16.94;78.29;101745.34;10576202;28;20044;-73
2022/08/25 23:32:57;;;;;;;3.40;1.02;;;;;;;16.97;78.06;101749.47;10576422;28;20402;-73
2022/08/25 23:37:59;;;;;;;1.20;1.15;;;;;;;16.96;78.13;101742.28;10576516;28;20055;-73
2022/08/25 23:43:02;;;;;;;0.90;0.90;;;;;;;17.06;78.10;101748.53;10558064;28;20502;-73